sensor_id;sensor_type;location;lat;lon;timestamp;P1;durP1;ratioP1;P2;durP2;ratioP2
49139;SDS011;34959;49.310;8.646;2023-07-31T00:01:51;2.85;;;1.35;;
49139;SDS011;34959;49.310;8.646;2023-07-31T00:04:17;3.60;;;1.13;;
49139;SDS011;34959;49.310;8.646;2023-07-31T00:06:42;3.20;;;0.85;;
49139;SDS011;34959;49.310;8.646;2023-07-31T00:09:08;1.92;;;0.90;;
49139;SDS011;34959;49.310;8.646;2023-07-31T00:11:33;3.08;;;1.30;;
49139;SDS011;34959;49.310;8.646;2023-07-31T00:13:58;2.47;;;0.90;;
49139;SDS011;34959;49.310;8.646;2023-07-31T00:16:24;2.67;;;0.98;;
49139;SDS011;34959;49.310;8.646;2023-07-31T00:18:49;3.60;;;1.20;;
49139;SDS011;34959;49.310;8.646;2023-07-31T00:21:15;1.60;;;0.90;;
49139;SDS011;34959;49.310;8.646;2023-07-31T00:23:40;2.17;;;0.75;;
49139;SDS011;34959;49.310;8.646;2023-07-31T00:26:05;2.15;;;0.85;;
49139;SDS011;34959;49.310;8.646;2023-07-31T00:28:31;4.45;;;1.00;;
49139;SDS011;34959;49.310;8.646;2023-07-31T00:30:56;8.02;;;1.10;;
49139;SDS011;34959;49.310;8.646;2023-07-31T00:33:22;4.70;;;1.08;;
49139;SDS011;34959;49.310;8.646;2023-07-31T00:35:48;10.85;;;1.25;;
49139;SDS011;34959;49.310;8.646;2023-07-31T00:38:13;5.75;;;1.42;;
49139;SDS011;34959;49.310;8.646;2023-07-31T00:40:39;5.78;;;1.20;;
49139;SDS011;34959;49.310;8.646;2023-07-31T00:43:05;3.25;;;1.10;;
49139;SDS011;34959;49.310;8.646;2023-07-31T00:45:39;2.28;;;1.00;;
49139;SDS011;34959;49.310;8.646;2023-07-31T00:48:05;2.90;;;1.10;;
49139;SDS011;34959;49.310;8.646;2023-07-31T00:50:34;5.18;;;1.45;;
49139;SDS011;34959;49.310;8.646;2023-07-31T00:53:00;4.15;;;1.58;;
49139;SDS011;34959;49.310;8.646;2023-07-31T00:55:25;13.82;;;1.35;;
49139;SDS011;34959;49.310;8.646;2023-07-31T00:57:50;4.53;;;1.10;;
49139;SDS011;34959;49.310;8.646;2023-07-31T01:00:17;3.38;;;1.20;;
49139;SDS011;34959;49.310;8.646;2023-07-31T01:02:43;5.75;;;1.20;;
49139;SDS011;34959;49.310;8.646;2023-07-31T01:05:08;3.75;;;1.05;;
49139;SDS011;34959;49.310;8.646;2023-07-31T01:07:56;3.13;;;1.08;;
49139;SDS011;34959;49.310;8.646;2023-07-31T01:10:38;3.40;;;1.20;;
49139;SDS011;34959;49.310;8.646;2023-07-31T01:13:08;2.22;;;1.02;;
49139;SDS011;34959;49.310;8.646;2023-07-31T01:15:34;7.82;;;1.33;;
49139;SDS011;34959;49.310;8.646;2023-07-31T01:18:00;2.28;;;1.23;;
49139;SDS011;34959;49.310;8.646;2023-07-31T01:20:26;2.38;;;0.90;;
49139;SDS011;34959;49.310;8.646;2023-07-31T01:28:42;1.80;;;0.90;;
49139;SDS011;34959;49.310;8.646;2023-07-31T01:31:09;2.22;;;0.90;;
49139;SDS011;34959;49.310;8.646;2023-07-31T01:33:36;2.70;;;1.25;;
49139;SDS011;34959;49.310;8.646;2023-07-31T01:36:02;2.20;;;1.02;;
49139;SDS011;34959;49.310;8.646;2023-07-31T01:38:28;2.78;;;0.90;;
49139;SDS011;34959;49.310;8.646;2023-07-31T01:40:53;5.95;;;1.15;;
49139;SDS011;34959;49.310;8.646;2023-07-31T01:43:19;2.10;;;0.90;;
49139;SDS011;34959;49.310;8.646;2023-07-31T01:45:45;2.88;;;1.10;;
49139;SDS011;34959;49.310;8.646;2023-07-31T01:48:10;2.95;;;1.05;;
49139;SDS011;34959;49.310;8.646;2023-07-31T01:50:35;4.63;;;0.90;;
49139;SDS011;34959;49.310;8.646;2023-07-31T01:53:01;2.13;;;0.90;;
49139;SDS011;34959;49.310;8.646;2023-07-31T01:55:26;2.67;;;1.10;;
49139;SDS011;34959;49.310;8.646;2023-07-31T01:57:52;2.63;;;0.80;;
49139;SDS011;34959;49.310;8.646;2023-07-31T02:00:18;1.58;;;0.80;;
49139;SDS011;34959;49.310;8.646;2023-07-31T02:02:44;2.20;;;1.05;;
49139;SDS011;34959;49.310;8.646;2023-07-31T02:05:09;2.33;;;1.00;;
49139;SDS011;34959;49.310;8.646;2023-07-31T02:07:34;1.60;;;1.00;;
49139;SDS011;34959;49.310;8.646;2023-07-31T02:10:00;2.25;;;0.77;;
49139;SDS011;34959;49.310;8.646;2023-07-31T02:12:25;4.45;;;0.80;;
49139;SDS011;34959;49.310;8.646;2023-07-31T02:14:51;2.03;;;1.00;;
49139;SDS011;34959;49.310;8.646;2023-07-31T02:17:16;1.70;;;1.00;;
49139;SDS011;34959;49.310;8.646;2023-07-31T02:19:42;2.38;;;0.95;;
49139;SDS011;34959;49.310;8.646;2023-07-31T02:22:07;3.30;;;0.77;;
49139;SDS011;34959;49.310;8.646;2023-07-31T02:24:32;1.92;;;0.90;;
49139;SDS011;34959;49.310;8.646;2023-07-31T02:26:58;3.15;;;0.80;;
49139;SDS011;34959;49.310;8.646;2023-07-31T02:29:23;1.83;;;0.80;;
49139;SDS011;34959;49.310;8.646;2023-07-31T02:31:49;1.80;;;1.02;;
49139;SDS011;34959;49.310;8.646;2023-07-31T02:34:14;2.20;;;0.98;;
49139;SDS011;34959;49.310;8.646;2023-07-31T02:36:39;2.35;;;0.90;;
49139;SDS011;34959;49.310;8.646;2023-07-31T02:39:05;2.15;;;1.13;;
49139;SDS011;34959;49.310;8.646;2023-07-31T02:41:30;1.67;;;0.85;;
49139;SDS011;34959;49.310;8.646;2023-07-31T02:43:56;2.15;;;0.88;;
49139;SDS011;34959;49.310;8.646;2023-07-31T02:46:21;1.92;;;0.90;;
49139;SDS011;34959;49.310;8.646;2023-07-31T02:48:49;2.35;;;1.00;;
49139;SDS011;34959;49.310;8.646;2023-07-31T02:51:15;2.83;;;1.10;;
49139;SDS011;34959;49.310;8.646;2023-07-31T02:53:40;1.85;;;0.95;;
49139;SDS011;34959;49.310;8.646;2023-07-31T02:56:06;2.00;;;1.02;;
49139;SDS011;34959;49.310;8.646;2023-07-31T02:58:31;2.92;;;1.00;;
49139;SDS011;34959;49.310;8.646;2023-07-31T03:00:58;2.47;;;0.95;;
49139;SDS011;34959;49.310;8.646;2023-07-31T03:03:23;1.48;;;0.90;;
49139;SDS011;34959;49.310;8.646;2023-07-31T03:05:49;2.85;;;1.35;;
49139;SDS011;34959;49.310;8.646;2023-07-31T03:08:15;7.03;;;1.05;;
49139;SDS011;34959;49.310;8.646;2023-07-31T03:10:41;5.43;;;0.80;;
49139;SDS011;34959;49.310;8.646;2023-07-31T03:13:06;1.40;;;0.80;;
49139;SDS011;34959;49.310;8.646;2023-07-31T03:15:32;2.85;;;0.98;;
49139;SDS011;34959;49.310;8.646;2023-07-31T03:17:57;1.88;;;0.90;;
49139;SDS011;34959;49.310;8.646;2023-07-31T03:20:23;2.13;;;0.90;;
49139;SDS011;34959;49.310;8.646;2023-07-31T03:22:48;1.35;;;0.80;;
49139;SDS011;34959;49.310;8.646;2023-07-31T03:25:13;1.45;;;0.75;;
49139;SDS011;34959;49.310;8.646;2023-07-31T03:27:39;5.60;;;1.00;;
49139;SDS011;34959;49.310;8.646;2023-07-31T03:30:05;1.83;;;0.90;;
49139;SDS011;34959;49.310;8.646;2023-07-31T03:32:31;4.28;;;0.90;;
49139;SDS011;34959;49.310;8.646;2023-07-31T03:34:57;5.18;;;1.20;;
49139;SDS011;34959;49.310;8.646;2023-07-31T03:37:22;2.78;;;1.30;;
49139;SDS011;34959;49.310;8.646;2023-07-31T03:39:48;2.80;;;0.90;;
49139;SDS011;34959;49.310;8.646;2023-07-31T03:42:13;2.53;;;0.80;;
49139;SDS011;34959;49.310;8.646;2023-07-31T03:44:38;4.93;;;0.82;;
49139;SDS011;34959;49.310;8.646;2023-07-31T03:47:04;5.00;;;0.80;;
49139;SDS011;34959;49.310;8.646;2023-07-31T03:49:30;2.05;;;1.00;;
49139;SDS011;34959;49.310;8.646;2023-07-31T03:51:55;2.08;;;0.90;;
49139;SDS011;34959;49.310;8.646;2023-07-31T03:54:21;2.65;;;0.98;;
49139;SDS011;34959;49.310;8.646;2023-07-31T03:56:46;4.28;;;0.82;;
49139;SDS011;34959;49.310;8.646;2023-07-31T03:59:12;1.77;;;0.88;;
49139;SDS011;34959;49.310;8.646;2023-07-31T04:01:37;3.10;;;1.17;;
49139;SDS011;34959;49.310;8.646;2023-07-31T04:04:02;1.70;;;0.75;;
49139;SDS011;34959;49.310;8.646;2023-07-31T04:06:28;2.67;;;1.10;;
49139;SDS011;34959;49.310;8.646;2023-07-31T04:08:53;2.53;;;0.90;;
49139;SDS011;34959;49.310;8.646;2023-07-31T04:11:19;2.83;;;0.90;;
49139;SDS011;34959;49.310;8.646;2023-07-31T04:13:44;2.03;;;0.77;;
49139;SDS011;34959;49.310;8.646;2023-07-31T04:16:10;2.75;;;0.80;;
49139;SDS011;34959;49.310;8.646;2023-07-31T04:18:35;1.40;;;0.90;;
49139;SDS011;34959;49.310;8.646;2023-07-31T04:21:00;2.28;;;0.70;;
49139;SDS011;34959;49.310;8.646;2023-07-31T04:23:27;2.10;;;1.13;;
49139;SDS011;34959;49.310;8.646;2023-07-31T04:25:53;2.05;;;0.90;;
49139;SDS011;34959;49.310;8.646;2023-07-31T04:28:18;1.45;;;0.95;;
49139;SDS011;34959;49.310;8.646;2023-07-31T04:30:44;1.48;;;0.80;;
49139;SDS011;34959;49.310;8.646;2023-07-31T04:33:09;5.22;;;1.27;;
49139;SDS011;34959;49.310;8.646;2023-07-31T04:35:34;1.65;;;0.80;;
49139;SDS011;34959;49.310;8.646;2023-07-31T04:38:00;1.65;;;0.80;;
49139;SDS011;34959;49.310;8.646;2023-07-31T04:40:25;1.83;;;0.90;;
49139;SDS011;34959;49.310;8.646;2023-07-31T04:42:51;2.13;;;0.80;;
49139;SDS011;34959;49.310;8.646;2023-07-31T04:45:16;1.05;;;0.80;;
49139;SDS011;34959;49.310;8.646;2023-07-31T04:47:42;7.68;;;0.85;;
49139;SDS011;34959;49.310;8.646;2023-07-31T04:50:07;1.67;;;0.80;;
49139;SDS011;34959;49.310;8.646;2023-07-31T04:52:33;1.90;;;1.10;;
49139;SDS011;34959;49.310;8.646;2023-07-31T04:54:58;1.42;;;0.80;;
49139;SDS011;34959;49.310;8.646;2023-07-31T04:57:24;1.42;;;0.63;;
49139;SDS011;34959;49.310;8.646;2023-07-31T04:59:49;1.83;;;1.10;;
49139;SDS011;34959;49.310;8.646;2023-07-31T05:02:14;2.03;;;1.02;;
49139;SDS011;34959;49.310;8.646;2023-07-31T05:04:40;2.03;;;0.90;;
49139;SDS011;34959;49.310;8.646;2023-07-31T05:07:05;3.15;;;1.05;;
49139;SDS011;34959;49.310;8.646;2023-07-31T05:09:31;1.92;;;0.82;;
49139;SDS011;34959;49.310;8.646;2023-07-31T05:11:56;5.43;;;0.93;;
49139;SDS011;34959;49.310;8.646;2023-07-31T05:14:21;1.67;;;0.80;;
49139;SDS011;34959;49.310;8.646;2023-07-31T05:16:47;2.38;;;1.00;;
49139;SDS011;34959;49.310;8.646;2023-07-31T05:19:12;1.42;;;0.80;;
49139;SDS011;34959;49.310;8.646;2023-07-31T05:21:38;1.83;;;0.90;;
49139;SDS011;34959;49.310;8.646;2023-07-31T05:24:03;1.58;;;0.85;;
49139;SDS011;34959;49.310;8.646;2023-07-31T05:26:29;1.17;;;0.65;;
49139;SDS011;34959;49.310;8.646;2023-07-31T05:28:55;1.60;;;0.73;;
49139;SDS011;34959;49.310;8.646;2023-07-31T05:31:20;2.28;;;0.90;;
49139;SDS011;34959;49.310;8.646;2023-07-31T05:33:47;2.65;;;1.35;;
49139;SDS011;34959;49.310;8.646;2023-07-31T05:36:14;4.35;;;0.73;;
49139;SDS011;34959;49.310;8.646;2023-07-31T05:38:40;1.77;;;0.90;;
49139;SDS011;34959;49.310;8.646;2023-07-31T05:41:05;1.45;;;0.77;;
49139;SDS011;34959;49.310;8.646;2023-07-31T05:43:31;1.52;;;0.65;;
49139;SDS011;34959;49.310;8.646;2023-07-31T05:45:56;2.45;;;0.85;;
49139;SDS011;34959;49.310;8.646;2023-07-31T05:48:21;1.67;;;0.75;;
49139;SDS011;34959;49.310;8.646;2023-07-31T05:50:47;1.92;;;0.90;;
49139;SDS011;34959;49.310;8.646;2023-07-31T05:53:12;2.30;;;0.80;;
49139;SDS011;34959;49.310;8.646;2023-07-31T05:55:38;2.33;;;0.93;;
49139;SDS011;34959;49.310;8.646;2023-07-31T05:58:03;3.08;;;0.73;;
49139;SDS011;34959;49.310;8.646;2023-07-31T06:00:29;2.05;;;0.80;;
49139;SDS011;34959;49.310;8.646;2023-07-31T06:02:54;2.80;;;0.82;;
49139;SDS011;34959;49.310;8.646;2023-07-31T06:05:19;0.98;;;0.70;;
49139;SDS011;34959;49.310;8.646;2023-07-31T06:07:45;2.85;;;0.98;;
49139;SDS011;34959;49.310;8.646;2023-07-31T06:10:11;1.63;;;0.70;;
49139;SDS011;34959;49.310;8.646;2023-07-31T06:12:36;4.35;;;1.27;;
49139;SDS011;34959;49.310;8.646;2023-07-31T06:15:02;2.80;;;0.95;;
49139;SDS011;34959;49.310;8.646;2023-07-31T06:17:28;2.13;;;0.90;;
49139;SDS011;34959;49.310;8.646;2023-07-31T06:19:54;2.38;;;0.90;;
49139;SDS011;34959;49.310;8.646;2023-07-31T06:22:19;2.60;;;0.85;;
49139;SDS011;34959;49.310;8.646;2023-07-31T06:24:45;1.58;;;0.73;;
49139;SDS011;34959;49.310;8.646;2023-07-31T06:27:11;2.28;;;1.10;;
49139;SDS011;34959;49.310;8.646;2023-07-31T06:29:37;3.90;;;1.10;;
49139;SDS011;34959;49.310;8.646;2023-07-31T06:32:02;4.63;;;1.10;;
49139;SDS011;34959;49.310;8.646;2023-07-31T06:34:28;2.10;;;0.80;;
49139;SDS011;34959;49.310;8.646;2023-07-31T06:36:55;1.48;;;0.80;;
49139;SDS011;34959;49.310;8.646;2023-07-31T06:39:21;1.92;;;0.95;;
49139;SDS011;34959;49.310;8.646;2023-07-31T06:41:46;5.50;;;1.17;;
49139;SDS011;34959;49.310;8.646;2023-07-31T06:44:11;1.60;;;0.70;;
49139;SDS011;34959;49.310;8.646;2023-07-31T06:46:37;5.25;;;0.90;;
49139;SDS011;34959;49.310;8.646;2023-07-31T06:49:02;2.72;;;0.90;;
49139;SDS011;34959;49.310;8.646;2023-07-31T06:51:28;3.25;;;0.90;;
49139;SDS011;34959;49.310;8.646;2023-07-31T06:53:53;7.25;;;1.05;;
49139;SDS011;34959;49.310;8.646;2023-07-31T06:56:19;1.90;;;0.90;;
49139;SDS011;34959;49.310;8.646;2023-07-31T06:58:45;3.42;;;0.93;;
49139;SDS011;34959;49.310;8.646;2023-07-31T07:01:11;3.42;;;1.00;;
49139;SDS011;34959;49.310;8.646;2023-07-31T07:03:36;2.05;;;1.10;;
49139;SDS011;34959;49.310;8.646;2023-07-31T07:06:02;3.63;;;0.80;;
49139;SDS011;34959;49.310;8.646;2023-07-31T07:08:27;3.20;;;0.80;;
49139;SDS011;34959;49.310;8.646;2023-07-31T07:10:52;5.00;;;1.05;;
49139;SDS011;34959;49.310;8.646;2023-07-31T07:13:18;5.18;;;1.65;;
49139;SDS011;34959;49.310;8.646;2023-07-31T07:15:50;3.53;;;1.70;;
49139;SDS011;34959;49.310;8.646;2023-07-31T07:18:16;4.88;;;1.83;;
49139;SDS011;34959;49.310;8.646;2023-07-31T07:20:52;5.57;;;1.70;;
49139;SDS011;34959;49.310;8.646;2023-07-31T07:23:18;3.80;;;1.27;;
49139;SDS011;34959;49.310;8.646;2023-07-31T07:25:44;5.10;;;1.80;;
49139;SDS011;34959;49.310;8.646;2023-07-31T07:28:10;4.78;;;1.67;;
49139;SDS011;34959;49.310;8.646;2023-07-31T07:30:36;6.50;;;1.95;;
49139;SDS011;34959;49.310;8.646;2023-07-31T07:33:01;3.90;;;1.95;;
49139;SDS011;34959;49.310;8.646;2023-07-31T07:35:27;5.28;;;1.70;;
49139;SDS011;34959;49.310;8.646;2023-07-31T07:37:52;5.85;;;2.25;;
49139;SDS011;34959;49.310;8.646;2023-07-31T07:40:18;5.88;;;2.33;;
49139;SDS011;34959;49.310;8.646;2023-07-31T07:42:44;5.13;;;1.83;;
49139;SDS011;34959;49.310;8.646;2023-07-31T07:45:10;4.60;;;2.05;;
49139;SDS011;34959;49.310;8.646;2023-07-31T07:47:35;5.03;;;1.65;;
49139;SDS011;34959;49.310;8.646;2023-07-31T07:50:01;4.03;;;2.05;;
49139;SDS011;34959;49.310;8.646;2023-07-31T07:52:26;6.95;;;1.85;;
49139;SDS011;34959;49.310;8.646;2023-07-31T07:54:51;4.85;;;1.70;;
49139;SDS011;34959;49.310;8.646;2023-07-31T07:57:17;5.47;;;1.70;;
49139;SDS011;34959;49.310;8.646;2023-07-31T07:59:43;6.43;;;1.73;;
49139;SDS011;34959;49.310;8.646;2023-07-31T08:02:09;4.43;;;1.75;;
49139;SDS011;34959;49.310;8.646;2023-07-31T08:04:34;4.05;;;1.70;;
49139;SDS011;34959;49.310;8.646;2023-07-31T08:06:59;3.80;;;1.70;;
49139;SDS011;34959;49.310;8.646;2023-07-31T08:09:25;4.50;;;1.80;;
49139;SDS011;34959;49.310;8.646;2023-07-31T08:11:50;4.15;;;1.55;;
49139;SDS011;34959;49.310;8.646;2023-07-31T08:14:15;3.67;;;1.65;;
49139;SDS011;34959;49.310;8.646;2023-07-31T08:16:41;5.47;;;1.90;;
49139;SDS011;34959;49.310;8.646;2023-07-31T08:19:06;3.85;;;1.77;;
49139;SDS011;34959;49.310;8.646;2023-07-31T08:21:32;7.85;;;2.15;;
49139;SDS011;34959;49.310;8.646;2023-07-31T08:23:57;5.40;;;1.70;;
49139;SDS011;34959;49.310;8.646;2023-07-31T08:26:23;5.95;;;1.67;;
49139;SDS011;34959;49.310;8.646;2023-07-31T08:28:48;4.97;;;1.90;;
49139;SDS011;34959;49.310;8.646;2023-07-31T08:31:13;2.75;;;1.40;;
49139;SDS011;34959;49.310;8.646;2023-07-31T08:33:39;5.45;;;1.85;;
49139;SDS011;34959;49.310;8.646;2023-07-31T08:36:07;4.57;;;1.60;;
49139;SDS011;34959;49.310;8.646;2023-07-31T08:38:33;3.50;;;1.77;;
49139;SDS011;34959;49.310;8.646;2023-07-31T08:40:58;4.20;;;1.80;;
49139;SDS011;34959;49.310;8.646;2023-07-31T08:43:27;4.50;;;1.50;;
49139;SDS011;34959;49.310;8.646;2023-07-31T08:45:52;4.57;;;1.70;;
49139;SDS011;34959;49.310;8.646;2023-07-31T08:48:19;3.47;;;1.60;;
49139;SDS011;34959;49.310;8.646;2023-07-31T08:50:45;3.05;;;1.60;;
49139;SDS011;34959;49.310;8.646;2023-07-31T08:53:11;3.10;;;1.63;;
49139;SDS011;34959;49.310;8.646;2023-07-31T08:55:37;3.47;;;1.48;;
49139;SDS011;34959;49.310;8.646;2023-07-31T08:58:03;4.47;;;1.48;;
49139;SDS011;34959;49.310;8.646;2023-07-31T09:00:29;3.65;;;1.70;;
49139;SDS011;34959;49.310;8.646;2023-07-31T09:05:42;4.05;;;1.52;;
49139;SDS011;34959;49.310;8.646;2023-07-31T09:08:09;2.72;;;1.42;;
49139;SDS011;34959;49.310;8.646;2023-07-31T09:10:39;3.22;;;1.38;;
49139;SDS011;34959;49.310;8.646;2023-07-31T09:13:09;4.63;;;1.40;;
49139;SDS011;34959;49.310;8.646;2023-07-31T09:15:35;2.90;;;1.45;;
49139;SDS011;34959;49.310;8.646;2023-07-31T09:18:02;3.58;;;1.50;;
49139;SDS011;34959;49.310;8.646;2023-07-31T09:20:28;3.80;;;1.60;;
49139;SDS011;34959;49.310;8.646;2023-07-31T09:22:54;1.88;;;1.15;;
49139;SDS011;34959;49.310;8.646;2023-07-31T09:25:23;2.95;;;1.55;;
49139;SDS011;34959;49.310;8.646;2023-07-31T09:27:51;2.75;;;1.30;;
49139;SDS011;34959;49.310;8.646;2023-07-31T09:30:19;4.07;;;1.50;;
49139;SDS011;34959;49.310;8.646;2023-07-31T09:32:45;3.50;;;1.70;;
49139;SDS011;34959;49.310;8.646;2023-07-31T09:35:21;2.70;;;1.40;;
49139;SDS011;34959;49.310;8.646;2023-07-31T09:37:51;4.05;;;1.48;;
49139;SDS011;34959;49.310;8.646;2023-07-31T09:40:27;24.60;;;3.40;;
49139;SDS011;34959;49.310;8.646;2023-07-31T09:42:57;10.50;;;2.00;;
49139;SDS011;34959;49.310;8.646;2023-07-31T09:45:23;9.55;;;2.53;;
49139;SDS011;34959;49.310;8.646;2023-07-31T09:47:49;9.35;;;2.33;;
49139;SDS011;34959;49.310;8.646;2023-07-31T09:50:14;10.65;;;2.22;;
49139;SDS011;34959;49.310;8.646;2023-07-31T09:52:43;10.18;;;2.13;;
49139;SDS011;34959;49.310;8.646;2023-07-31T09:55:09;11.27;;;2.00;;
49139;SDS011;34959;49.310;8.646;2023-07-31T09:57:37;8.82;;;2.25;;
49139;SDS011;34959;49.310;8.646;2023-07-31T10:00:05;7.28;;;2.25;;
49139;SDS011;34959;49.310;8.646;2023-07-31T10:02:34;3.47;;;1.58;;
49139;SDS011;34959;49.310;8.646;2023-07-31T10:05:01;5.47;;;1.80;;
49139;SDS011;34959;49.310;8.646;2023-07-31T10:07:28;4.72;;;2.17;;
49139;SDS011;34959;49.310;8.646;2023-07-31T10:09:55;5.13;;;2.10;;
49139;SDS011;34959;49.310;8.646;2023-07-31T10:12:22;5.90;;;2.22;;
49139;SDS011;34959;49.310;8.646;2023-07-31T10:14:53;7.30;;;2.28;;
49139;SDS011;34959;49.310;8.646;2023-07-31T10:17:19;5.05;;;2.00;;
49139;SDS011;34959;49.310;8.646;2023-07-31T10:19:46;14.63;;;2.63;;
49139;SDS011;34959;49.310;8.646;2023-07-31T10:22:13;8.02;;;2.40;;
49139;SDS011;34959;49.310;8.646;2023-07-31T10:24:39;6.18;;;1.60;;
49139;SDS011;34959;49.310;8.646;2023-07-31T10:27:05;6.18;;;1.95;;
49139;SDS011;34959;49.310;8.646;2023-07-31T10:29:31;6.57;;;2.05;;
49139;SDS011;34959;49.310;8.646;2023-07-31T10:31:57;3.97;;;1.92;;
49139;SDS011;34959;49.310;8.646;2023-07-31T10:34:23;5.22;;;2.00;;
49139;SDS011;34959;49.310;8.646;2023-07-31T10:36:49;6.47;;;2.10;;
49139;SDS011;34959;49.310;8.646;2023-07-31T10:39:33;4.10;;;2.05;;
49139;SDS011;34959;49.310;8.646;2023-07-31T10:42:09;4.88;;;1.90;;
49139;SDS011;34959;49.310;8.646;2023-07-31T10:44:35;4.68;;;1.77;;
49139;SDS011;34959;49.310;8.646;2023-07-31T10:47:01;4.78;;;1.95;;
49139;SDS011;34959;49.310;8.646;2023-07-31T10:49:27;5.05;;;1.70;;
49139;SDS011;34959;49.310;8.646;2023-07-31T10:51:56;3.65;;;1.60;;
49139;SDS011;34959;49.310;8.646;2023-07-31T10:54:22;5.82;;;1.80;;
49139;SDS011;34959;49.310;8.646;2023-07-31T10:56:50;5.03;;;1.80;;
49139;SDS011;34959;49.310;8.646;2023-07-31T10:59:15;4.53;;;1.90;;
49139;SDS011;34959;49.310;8.646;2023-07-31T11:01:56;5.72;;;1.60;;
49139;SDS011;34959;49.310;8.646;2023-07-31T11:04:27;4.35;;;1.83;;
49139;SDS011;34959;49.310;8.646;2023-07-31T11:07:00;4.88;;;1.73;;
49139;SDS011;34959;49.310;8.646;2023-07-31T11:09:28;4.90;;;1.75;;
49139;SDS011;34959;49.310;8.646;2023-07-31T11:11:55;3.45;;;1.48;;
49139;SDS011;34959;49.310;8.646;2023-07-31T11:14:21;2.22;;;1.48;;
49139;SDS011;34959;49.310;8.646;2023-07-31T11:16:49;3.70;;;1.42;;
49139;SDS011;34959;49.310;8.646;2023-07-31T11:19:15;4.40;;;1.90;;
49139;SDS011;34959;49.310;8.646;2023-07-31T11:21:47;4.03;;;1.70;;
49139;SDS011;34959;49.310;8.646;2023-07-31T11:24:13;2.90;;;1.38;;
49139;SDS011;34959;49.310;8.646;2023-07-31T11:26:38;4.68;;;1.70;;
49139;SDS011;34959;49.310;8.646;2023-07-31T11:29:10;3.20;;;1.40;;
49139;SDS011;34959;49.310;8.646;2023-07-31T11:31:41;3.75;;;1.30;;
49139;SDS011;34959;49.310;8.646;2023-07-31T11:34:07;3.78;;;1.83;;
49139;SDS011;34959;49.310;8.646;2023-07-31T11:36:33;4.75;;;1.45;;
49139;SDS011;34959;49.310;8.646;2023-07-31T11:39:08;2.60;;;1.50;;
49139;SDS011;34959;49.310;8.646;2023-07-31T11:41:34;4.13;;;1.35;;
49139;SDS011;34959;49.310;8.646;2023-07-31T11:44:00;3.60;;;1.60;;
49139;SDS011;34959;49.310;8.646;2023-07-31T11:46:26;2.88;;;1.23;;
49139;SDS011;34959;49.310;8.646;2023-07-31T11:48:51;3.97;;;1.58;;
49139;SDS011;34959;49.310;8.646;2023-07-31T11:51:17;6.13;;;1.67;;
49139;SDS011;34959;49.310;8.646;2023-07-31T11:53:45;3.25;;;1.50;;
49139;SDS011;34959;49.310;8.646;2023-07-31T11:56:16;2.67;;;1.48;;
49139;SDS011;34959;49.310;8.646;2023-07-31T11:58:43;3.45;;;1.35;;
49139;SDS011;34959;49.310;8.646;2023-07-31T12:01:10;4.05;;;1.40;;
49139;SDS011;34959;49.310;8.646;2023-07-31T12:03:35;3.33;;;1.50;;
49139;SDS011;34959;49.310;8.646;2023-07-31T12:06:01;3.45;;;1.67;;
49139;SDS011;34959;49.310;8.646;2023-07-31T12:08:27;2.15;;;1.35;;
49139;SDS011;34959;49.310;8.646;2023-07-31T12:10:53;4.68;;;1.75;;
49139;SDS011;34959;49.310;8.646;2023-07-31T12:13:23;4.43;;;1.55;;
49139;SDS011;34959;49.310;8.646;2023-07-31T12:15:53;2.58;;;1.40;;
49139;SDS011;34959;49.310;8.646;2023-07-31T12:18:20;6.15;;;1.83;;
49139;SDS011;34959;49.310;8.646;2023-07-31T12:20:46;4.03;;;1.67;;
49139;SDS011;34959;49.310;8.646;2023-07-31T12:23:17;5.00;;;1.77;;
49139;SDS011;34959;49.310;8.646;2023-07-31T12:25:44;3.47;;;1.50;;
49139;SDS011;34959;49.310;8.646;2023-07-31T12:28:10;1.85;;;1.00;;
49139;SDS011;34959;49.310;8.646;2023-07-31T12:30:39;2.55;;;1.33;;
49139;SDS011;34959;49.310;8.646;2023-07-31T12:33:14;1.77;;;1.30;;
49139;SDS011;34959;49.310;8.646;2023-07-31T12:35:41;2.72;;;1.30;;
49139;SDS011;34959;49.310;8.646;2023-07-31T12:38:08;2.80;;;1.50;;
49139;SDS011;34959;49.310;8.646;2023-07-31T12:40:35;2.45;;;1.27;;
49139;SDS011;34959;49.310;8.646;2023-07-31T12:43:02;3.00;;;1.50;;
49139;SDS011;34959;49.310;8.646;2023-07-31T12:45:28;5.03;;;1.25;;
49139;SDS011;34959;49.310;8.646;2023-07-31T12:47:54;3.22;;;1.38;;
49139;SDS011;34959;49.310;8.646;2023-07-31T12:50:20;6.07;;;1.58;;
49139;SDS011;34959;49.310;8.646;2023-07-31T12:52:45;2.78;;;1.48;;
49139;SDS011;34959;49.310;8.646;2023-07-31T12:55:10;3.30;;;1.50;;
49139;SDS011;34959;49.310;8.646;2023-07-31T12:57:36;2.38;;;1.13;;
49139;SDS011;34959;49.310;8.646;2023-07-31T13:00:02;2.97;;;1.30;;
49139;SDS011;34959;49.310;8.646;2023-07-31T13:02:28;2.42;;;1.10;;
49139;SDS011;34959;49.310;8.646;2023-07-31T13:04:53;4.10;;;1.83;;
49139;SDS011;34959;49.310;8.646;2023-07-31T13:07:19;2.63;;;1.40;;
49139;SDS011;34959;49.310;8.646;2023-07-31T13:09:45;2.63;;;1.45;;
49139;SDS011;34959;49.310;8.646;2023-07-31T13:12:10;3.33;;;1.30;;
49139;SDS011;34959;49.310;8.646;2023-07-31T13:14:35;2.38;;;1.30;;
49139;SDS011;34959;49.310;8.646;2023-07-31T13:17:01;3.05;;;1.40;;
49139;SDS011;34959;49.310;8.646;2023-07-31T13:19:27;2.42;;;1.20;;
49139;SDS011;34959;49.310;8.646;2023-07-31T13:21:52;5.88;;;1.50;;
49139;SDS011;34959;49.310;8.646;2023-07-31T13:24:20;2.22;;;1.30;;
49139;SDS011;34959;49.310;8.646;2023-07-31T13:26:45;2.47;;;1.27;;
49139;SDS011;34959;49.310;8.646;2023-07-31T13:29:11;2.03;;;1.20;;
49139;SDS011;34959;49.310;8.646;2023-07-31T13:31:36;2.17;;;1.15;;
49139;SDS011;34959;49.310;8.646;2023-07-31T13:34:02;3.33;;;1.10;;
49139;SDS011;34959;49.310;8.646;2023-07-31T13:36:28;2.75;;;1.08;;
49139;SDS011;34959;49.310;8.646;2023-07-31T13:38:53;2.42;;;1.10;;
49139;SDS011;34959;49.310;8.646;2023-07-31T13:41:18;3.03;;;1.30;;
49139;SDS011;34959;49.310;8.646;2023-07-31T13:43:44;2.90;;;1.20;;
49139;SDS011;34959;49.310;8.646;2023-07-31T13:46:09;4.05;;;1.30;;
49139;SDS011;34959;49.310;8.646;2023-07-31T13:48:36;1.90;;;1.00;;
49139;SDS011;34959;49.310;8.646;2023-07-31T13:51:01;2.00;;;1.10;;
49139;SDS011;34959;49.310;8.646;2023-07-31T13:53:27;2.13;;;1.20;;
49139;SDS011;34959;49.310;8.646;2023-07-31T13:55:52;2.55;;;1.40;;
49139;SDS011;34959;49.310;8.646;2023-07-31T13:58:18;2.53;;;1.20;;
49139;SDS011;34959;49.310;8.646;2023-07-31T14:00:43;2.45;;;1.20;;
49139;SDS011;34959;49.310;8.646;2023-07-31T14:03:08;2.25;;;1.05;;
49139;SDS011;34959;49.310;8.646;2023-07-31T14:05:34;2.28;;;1.10;;
49139;SDS011;34959;49.310;8.646;2023-07-31T14:08:00;1.52;;;1.15;;
49139;SDS011;34959;49.310;8.646;2023-07-31T14:10:25;1.73;;;1.00;;
49139;SDS011;34959;49.310;8.646;2023-07-31T14:12:51;2.55;;;1.17;;
49139;SDS011;34959;49.310;8.646;2023-07-31T14:15:16;2.38;;;1.20;;
49139;SDS011;34959;49.310;8.646;2023-07-31T14:17:42;2.47;;;0.88;;
49139;SDS011;34959;49.310;8.646;2023-07-31T14:20:08;2.15;;;1.20;;
49139;SDS011;34959;49.310;8.646;2023-07-31T14:22:33;1.60;;;1.00;;
49139;SDS011;34959;49.310;8.646;2023-07-31T14:24:59;5.68;;;1.30;;
49139;SDS011;34959;49.310;8.646;2023-07-31T14:27:25;2.15;;;1.00;;
49139;SDS011;34959;49.310;8.646;2023-07-31T14:29:50;2.05;;;1.05;;
49139;SDS011;34959;49.310;8.646;2023-07-31T14:32:16;2.13;;;1.15;;
49139;SDS011;34959;49.310;8.646;2023-07-31T14:34:41;2.08;;;1.10;;
49139;SDS011;34959;49.310;8.646;2023-07-31T14:37:07;3.03;;;1.35;;
49139;SDS011;34959;49.310;8.646;2023-07-31T14:39:32;2.40;;;1.30;;
49139;SDS011;34959;49.310;8.646;2023-07-31T14:41:58;1.90;;;1.02;;
49139;SDS011;34959;49.310;8.646;2023-07-31T14:44:23;1.75;;;1.08;;
49139;SDS011;34959;49.310;8.646;2023-07-31T14:46:48;1.83;;;1.10;;
49139;SDS011;34959;49.310;8.646;2023-07-31T14:49:14;2.65;;;1.20;;
49139;SDS011;34959;49.310;8.646;2023-07-31T14:51:39;2.65;;;1.10;;